sensor_id;sensor_type;location;lat;lon;timestamp;P1;durP1;ratioP1;P2;durP2;ratioP2
66609;SDS011;53468;48.276;14.416;2023-04-15T08:58:12;3.30;;;1.13;;
66609;SDS011;53468;48.276;14.416;2023-04-15T09:03:27;2.78;;;1.00;;
66609;SDS011;53468;48.276;14.416;2023-04-15T09:21:04;0.73;;;0.57;;
66609;SDS011;53468;48.276;14.416;2023-04-15T09:32:51;1.52;;;0.95;;
66609;SDS011;53468;48.276;14.416;2023-04-15T09:38:19;2.63;;;1.13;;
66609;SDS011;53468;48.276;14.416;2023-04-15T09:44:01;1.90;;;1.17;;
66609;SDS011;53468;48.276;14.416;2023-04-15T10:25:14;3.63;;;1.80;;
66609;SDS011;53468;48.276;14.416;2023-04-15T10:30:45;4.75;;;2.10;;
66609;SDS011;53468;48.276;14.416;2023-04-15T10:37:04;2.40;;;1.33;;
66609;SDS011;53468;48.276;14.416;2023-04-15T10:42:18;2.83;;;1.13;;
66609;SDS011;53468;48.276;14.416;2023-04-15T10:48:03;3.38;;;1.38;;
66609;SDS011;53468;48.276;14.416;2023-04-15T10:53:09;4.20;;;1.20;;
66609;SDS011;53468;48.276;14.416;2023-04-15T10:58:12;3.95;;;2.15;;
66609;SDS011;53468;48.276;14.416;2023-04-15T11:09:00;6.25;;;2.38;;
66609;SDS011;53468;48.276;14.416;2023-04-15T11:14:39;7.05;;;2.33;;
66609;SDS011;53468;48.276;14.416;2023-04-15T11:19:52;3.95;;;2.20;;
66609;SDS011;53468;48.276;14.416;2023-04-15T11:24:54;5.65;;;2.92;;
66609;SDS011;53468;48.276;14.416;2023-04-15T11:29:57;5.95;;;3.15;;
66609;SDS011;53468;48.276;14.416;2023-04-15T11:35:05;6.63;;;3.65;;
66609;SDS011;53468;48.276;14.416;2023-04-15T11:40:10;5.07;;;2.45;;
66609;SDS011;53468;48.276;14.416;2023-04-15T11:45:14;4.78;;;2.60;;
66609;SDS011;53468;48.276;14.416;2023-04-15T11:50:22;2.75;;;1.88;;
66609;SDS011;53468;48.276;14.416;2023-04-15T11:55:25;3.47;;;1.80;;
66609;SDS011;53468;48.276;14.416;2023-04-15T12:00:50;1.63;;;1.10;;
66609;SDS011;53468;48.276;14.416;2023-04-15T12:06:09;1.90;;;1.13;;
66609;SDS011;53468;48.276;14.416;2023-04-15T12:11:19;2.33;;;1.58;;
66609;SDS011;53468;48.276;14.416;2023-04-15T12:16:29;3.33;;;1.48;;
66609;SDS011;53468;48.276;14.416;2023-04-15T12:21:37;5.78;;;1.45;;
66609;SDS011;53468;48.276;14.416;2023-04-15T12:26:56;1.67;;;1.10;;
66609;SDS011;53468;48.276;14.416;2023-04-15T12:32:04;1.40;;;0.82;;
66609;SDS011;53468;48.276;14.416;2023-04-15T12:37:18;7.05;;;4.47;;
66609;SDS011;53468;48.276;14.416;2023-04-15T12:42:23;6.45;;;3.63;;
66609;SDS011;53468;48.276;14.416;2023-04-15T12:47:32;2.22;;;1.08;;
66609;SDS011;53468;48.276;14.416;2023-04-15T12:52:41;3.00;;;1.77;;
66609;SDS011;53468;48.276;14.416;2023-04-15T12:57:47;2.20;;;1.60;;
66609;SDS011;53468;48.276;14.416;2023-04-15T13:02:55;5.93;;;2.10;;
66609;SDS011;53468;48.276;14.416;2023-04-15T13:08:10;5.03;;;2.55;;
66609;SDS011;53468;48.276;14.416;2023-04-15T13:13:21;5.28;;;2.75;;
66609;SDS011;53468;48.276;14.416;2023-04-15T13:18:40;5.15;;;2.55;;
66609;SDS011;53468;48.276;14.416;2023-04-15T13:24:18;3.50;;;2.38;;
66609;SDS011;53468;48.276;14.416;2023-04-15T13:29:48;4.68;;;2.58;;
66609;SDS011;53468;48.276;14.416;2023-04-15T13:35:23;6.25;;;1.98;;
66609;SDS011;53468;48.276;14.416;2023-04-15T13:40:49;4.10;;;1.83;;
66609;SDS011;53468;48.276;14.416;2023-04-15T13:46:27;4.10;;;1.97;;
66609;SDS011;53468;48.276;14.416;2023-04-15T13:51:35;2.65;;;1.80;;
66609;SDS011;53468;48.276;14.416;2023-04-15T13:56:55;7.20;;;1.95;;
66609;SDS011;53468;48.276;14.416;2023-04-15T14:01:58;4.30;;;2.28;;
66609;SDS011;53468;48.276;14.416;2023-04-15T14:07:04;5.95;;;2.85;;
66609;SDS011;53468;48.276;14.416;2023-04-15T14:12:17;7.25;;;3.15;;
66609;SDS011;53468;48.276;14.416;2023-04-15T14:17:29;7.45;;;3.67;;
66609;SDS011;53468;48.276;14.416;2023-04-15T14:22:42;6.00;;;3.53;;
66609;SDS011;53468;48.276;14.416;2023-04-15T14:34:16;6.05;;;3.40;;
66609;SDS011;53468;48.276;14.416;2023-04-15T14:39:24;5.80;;;3.28;;
66609;SDS011;53468;48.276;14.416;2023-04-15T14:44:29;8.88;;;4.00;;
66609;SDS011;53468;48.276;14.416;2023-04-15T14:49:43;7.78;;;4.60;;
66609;SDS011;53468;48.276;14.416;2023-04-15T14:55:34;4.20;;;2.83;;
66609;SDS011;53468;48.276;14.416;2023-04-15T15:00:56;4.47;;;2.63;;
66609;SDS011;53468;48.276;14.416;2023-04-15T15:06:58;4.57;;;2.20;;
66609;SDS011;53468;48.276;14.416;2023-04-15T15:12:42;4.00;;;2.35;;
66609;SDS011;53468;48.276;14.416;2023-04-15T15:18:02;3.63;;;2.08;;
66609;SDS011;53468;48.276;14.416;2023-04-15T15:30:00;3.33;;;2.10;;
66609;SDS011;53468;48.276;14.416;2023-04-15T15:46:56;7.38;;;2.67;;
66609;SDS011;53468;48.276;14.416;2023-04-15T15:52:03;5.70;;;3.13;;
66609;SDS011;53468;48.276;14.416;2023-04-15T15:57:11;4.68;;;2.90;;
66609;SDS011;53468;48.276;14.416;2023-04-15T16:02:24;5.63;;;3.92;;
66609;SDS011;53468;48.276;14.416;2023-04-15T16:07:54;4.97;;;3.30;;
66609;SDS011;53468;48.276;14.416;2023-04-15T16:13:09;5.38;;;3.58;;
66609;SDS011;53468;48.276;14.416;2023-04-15T16:18:38;7.22;;;4.25;;
66609;SDS011;53468;48.276;14.416;2023-04-15T16:24:04;6.63;;;3.83;;
66609;SDS011;53468;48.276;14.416;2023-04-15T16:29:39;6.10;;;4.40;;
66609;SDS011;53468;48.276;14.416;2023-04-15T16:35:22;6.05;;;3.97;;
66609;SDS011;53468;48.276;14.416;2023-04-15T16:40:33;5.20;;;3.72;;
66609;SDS011;53468;48.276;14.416;2023-04-15T16:45:51;6.07;;;3.50;;
66609;SDS011;53468;48.276;14.416;2023-04-15T16:51:35;6.63;;;4.13;;
66609;SDS011;53468;48.276;14.416;2023-04-15T17:57:03;8.13;;;5.50;;
66609;SDS011;53468;48.276;14.416;2023-04-15T18:43:23;2.58;;;1.25;;
66609;SDS011;53468;48.276;14.416;2023-04-15T18:48:30;2.85;;;1.90;;
66609;SDS011;53468;48.276;14.416;2023-04-15T19:06:11;6.25;;;2.13;;
66609;SDS011;53468;48.276;14.416;2023-04-15T21:24:25;6.30;;;4.65;;
66609;SDS011;53468;48.276;14.416;2023-04-15T21:30:09;10.88;;;5.05;;
66609;SDS011;53468;48.276;14.416;2023-04-15T21:35:57;8.53;;;5.20;;
